Arsenal, Utah
Current Conditions -  °F | °C
As of 11:58 AM on Friday 28 Nov 2014 (Local Time) from KHIF Reporting Station
Clear Clear  
Wind Chill: 56°   Ceiling: Unl
Heat Index: 56°   Visibility: 10mi
Dew Point: 19°   Wind: 10mph
Humidity: 24%   Direction: 160°SSE
Pressure: 29.97"   Gusts: NA
Location:  41.123°N, 112.063°W
Report Text: KHIF 281858Z AUTO 16009KT 10SM CLR 14/M07 A2997 RMK AO2 SLP122 T01351071
Loading
Personal Weather Stations






























Interactive Weather Map New forecast layout! Learn more

10-Day Weather Forecast

Advertisements
Track Severe Weather on mobile